Time;durP1;ratioP1;P1;durP2;ratioP2;P2;SDS_P1;SDS_P2;PMS_P1;PMS_P2;Temp;Humidity;BMP_temperature;BMP_pressure;BME280_temperature;BME280_humidity;BME280_pressure;Samples;Min_cycle;Max_cycle;Signal;HPM_P1;HPM_P2
2022/02/13 00:01:36;;;;;;;17.52;9.30;;;;;;;-0.99;74.17;102416.94;1648065;86;21027;-67
2022/02/13 00:04:04;;;;;;;17.32;9.90;;;;;;;-0.97;74.10;102418.92;1654419;86;21215;-68
2022/02/13 00:06:31;;;;;;;16.85;9.30;;;;;;;-0.95;73.96;102418.31;1651903;86;21209;-68
2022/02/13 00:08:58;;;;;;;17.17;8.98;;;;;;;-0.92;73.79;102416.37;1652143;86;21092;-68
2022/02/13 00:11:26;;;;;;;15.68;8.60;;;;;;;-0.93;73.61;102416.03;1654488;86;21544;-68
2022/02/13 00:13:54;;;;;;;16.30;9.48;;;;;;;-0.97;73.48;102414.98;1661918;84;21535;-67
2022/02/13 00:16:23;;;;;;;14.58;9.20;;;;;;;-0.98;73.35;102419.89;1678097;85;39257;-68
2022/02/13 00:18:50;;;;;;;15.15;9.30;;;;;;;-0.96;73.21;102418.44;1667599;86;21094;-68
2022/02/13 00:21:16;;;;;;;14.78;8.50;;;;;;;-0.97;73.09;102420.72;1680551;85;21557;-69
2022/02/13 00:23:43;;;;;;;15.38;8.98;;;;;;;-0.97;72.99;102426.79;1678054;85;21030;-68
2022/02/13 00:26:10;;;;;;;13.18;7.85;;;;;;;-0.98;72.84;102430.88;1678077;85;21069;-67
2022/02/13 00:28:38;;;;;;;19.02;10.10;;;;;;;-1.02;72.76;102428.15;1651665;87;21633;-68
2022/02/13 00:31:05;;;;;;;16.12;10.03;;;;;;;-1.09;72.78;102427.86;1651443;86;20964;-68
2022/02/13 00:33:32;;;;;;;15.35;9.35;;;;;;;-1.15;72.82;102422.32;1651618;87;21067;-68
2022/02/13 00:35:59;;;;;;;13.90;8.85;;;;;;;-1.21;72.75;102421.09;1678020;85;20975;-68
2022/02/13 00:38:26;;;;;;;16.50;9.35;;;;;;;-1.28;72.71;102411.61;1678169;85;21655;-68
2022/02/13 00:40:52;;;;;;;16.05;9.25;;;;;;;-1.30;72.70;102411.39;1667861;86;21175;-68
2022/02/13 00:43:21;;;;;;;14.55;8.65;;;;;;;-1.34;72.70;102407.39;1680403;85;20964;-68
2022/02/13 00:45:48;;;;;;;14.80;9.33;;;;;;;-1.36;72.65;102416.67;1678161;85;20999;-68
2022/02/13 00:48:16;;;;;;;18.48;9.63;;;;;;;-1.40;72.58;102419.22;1677952;85;21031;-68
2022/02/13 00:50:45;;;;;;;15.28;8.30;;;;;;;-1.47;72.54;102413.68;1678035;85;20959;-67
2022/02/13 00:53:11;;;;;;;14.45;8.73;;;;;;;-1.52;72.58;102417.16;1651690;87;21141;-68
2022/02/13 00:55:38;;;;;;;13.75;7.55;;;;;;;-1.56;72.72;102420.19;1678140;85;21046;-68
2022/02/13 00:58:04;;;;;;;12.82;7.50;;;;;;;-1.62;72.92;102416.30;1678290;85;21022;-69
2022/02/13 01:00:32;;;;;;;12.80;7.78;;;;;;;-1.66;73.09;102410.97;1677927;85;20994;-67
2022/02/13 01:02:59;;;;;;;14.63;7.58;;;;;;;-1.69;73.30;102409.44;1651531;87;21584;-68
2022/02/13 01:05:26;;;;;;;15.10;8.28;;;;;;;-1.72;73.63;102414.11;1678171;85;21155;-68
2022/02/13 01:07:52;;;;;;;13.70;8.25;;;;;;;-1.68;73.79;102416.36;1678278;85;21529;-68
2022/02/13 01:10:19;;;;;;;15.75;8.78;;;;;;;-1.64;73.78;102414.79;1678108;85;21057;-69
2022/02/13 01:12:46;;;;;;;15.30;8.55;;;;;;;-1.60;73.81;102415.69;1668021;84;21541;-68
2022/02/13 01:15:15;;;;;;;13.43;7.87;;;;;;;-1.56;73.60;102413.64;1680874;85;20963;-69
2022/02/13 01:17:43;;;;;;;12.25;7.87;;;;;;;-1.56;73.59;102409.22;1678093;85;21938;-68
2022/02/13 01:20:12;;;;;;;13.72;8.15;;;;;;;-1.55;73.67;102408.73;1678228;85;21086;-68
2022/02/13 01:22:40;;;;;;;14.68;8.48;;;;;;;-1.52;73.37;102409.78;1651542;87;21142;-68
2022/02/13 01:25:09;;;;;;;13.28;7.92;;;;;;;-1.51;73.20;102402.30;1678084;85;21308;-68
2022/02/13 01:27:36;;;;;;;13.45;8.13;;;;;;;-1.52;73.42;102409.78;1678381;85;21077;-69
2022/02/13 01:30:04;;;;;;;14.33;8.15;;;;;;;-1.52;72.94;102413.72;1668067;86;21517;-69
2022/02/13 01:32:33;;;;;;;12.58;7.75;;;;;;;-1.53;72.78;102414.69;1680766;85;21113;-69
2022/02/13 01:34:59;;;;;;;12.30;7.83;;;;;;;-1.56;72.69;102412.33;1651712;87;21078;-69
2022/02/13 01:37:26;;;;;;;14.40;7.30;;;;;;;-1.59;72.62;102415.20;1651620;86;21153;-67
2022/02/13 01:39:53;;;;;;;12.10;7.42;;;;;;;-1.63;72.52;102415.12;1651675;87;21006;-69
2022/02/13 01:42:20;;;;;;;12.95;7.20;;;;;;;-1.70;72.42;102406.48;1677972;85;21170;-68
2022/02/13 01:44:51;;;;;;;12.40;7.78;;;;;;;-1.80;72.48;102405.61;1678371;85;21034;-68
2022/02/13 01:47:17;;;;;;;14.45;7.72;;;;;;;-1.93;72.96;102409.73;1651350;86;20986;-68
2022/02/13 01:49:44;;;;;;;15.15;7.83;;;;;;;-1.93;72.96;102409.73;1678239;85;21022;-68
2022/02/13 01:52:11;;;;;;;13.75;8.25;;;;;;;-1.96;72.98;102407.86;1678237;85;20967;-68
2022/02/13 01:54:37;;;;;;;12.93;7.15;;;;;;;-1.96;72.98;102407.86;1625991;86;21156;-68
2022/02/13 01:57:06;;;;;;;14.85;7.85;;;;;;;-1.98;73.38;102404.52;1676335;85;20970;-68
2022/02/13 01:59:35;;;;;;;12.98;7.78;;;;;;;-1.95;73.48;102406.89;1656187;85;21006;-68
2022/02/13 02:02:04;;;;;;;14.83;6.85;;;;;;;-1.96;73.79;102409.16;1624133;87;21074;-68
2022/02/13 02:04:31;;;;;;;12.85;7.37;;;;;;;-1.96;73.79;102409.16;1626381;88;21023;-68
2022/02/13 02:07:00;;;;;;;13.15;7.80;;;;;;;-1.95;73.63;102412.13;1651995;86;22337;-69
2022/02/13 02:09:28;;;;;;;12.10;7.42;;;;;;;-1.98;73.71;102416.31;1652531;85;20998;-68
2022/02/13 02:11:57;;;;;;;13.25;7.90;;;;;;;-1.94;73.81;102411.16;1660814;86;21031;-68
2022/02/13 02:14:24;;;;;;;12.55;7.05;;;;;;;-1.89;73.74;102415.55;1680686;85;20991;-68
2022/02/13 02:16:51;;;;;;;15.78;8.55;;;;;;;-1.85;73.44;102409.08;1668790;85;21081;-68
2022/02/13 02:19:18;;;;;;;13.72;7.47;;;;;;;-1.82;73.44;102412.75;1651941;86;21158;-68
2022/02/13 02:21:47;;;;;;;12.75;7.58;;;;;;;-1.82;73.27;102414.06;1641880;87;21526;-68
2022/02/13 02:24:15;;;;;;;12.07;6.90;;;;;;;-1.82;73.13;102421.91;1655281;85;21157;-69
2022/02/13 02:26:43;;;;;;;13.83;7.15;;;;;;;-1.85;73.02;102412.18;1627181;86;21514;-66
2022/02/13 02:29:10;;;;;;;11.28;6.30;;;;;;;-1.95;73.09;102410.81;1626436;88;21183;-69
2022/02/13 02:31:36;;;;;;;12.78;7.00;;;;;;;-1.99;73.15;102409.42;1626313;88;21184;-69
2022/02/13 02:34:03;;;;;;;13.55;7.40;;;;;;;-2.04;73.26;102406.34;1652060;86;21021;-69
2022/02/13 02:36:31;;;;;;;13.55;7.03;;;;;;;-2.10;73.37;102401.65;1652542;85;21131;-69
2022/02/13 02:38:58;;;;;;;13.10;6.90;;;;;;;-2.17;73.67;102418.34;1626292;88;21038;-68
2022/02/13 02:41:26;;;;;;;12.75;7.05;;;;;;;-2.17;73.67;102418.34;1653036;85;21060;-68
2022/02/13 02:43:52;;;;;;;13.08;6.92;;;;;;;-2.18;73.44;102415.36;1652251;86;22175;-68
2022/02/13 02:46:19;;;;;;;12.25;6.87;;;;;;;-2.15;73.39;102416.41;1626128;88;20994;-68
2022/02/13 02:48:46;;;;;;;13.35;7.25;;;;;;;-2.19;73.30;102423.69;1626499;86;21053;-69
2022/02/13 02:51:13;;;;;;;14.35;7.25;;;;;;;-2.20;73.24;102415.50;1626925;86;21010;-68
2022/02/13 02:53:42;;;;;;;11.45;6.90;;;;;;;-2.18;73.15;102415.36;1626719;88;21069;-67
2022/02/13 02:56:09;;;;;;;12.88;6.78;;;;;;;-2.17;73.05;102414.42;1627426;86;21162;-67
2022/02/13 02:58:36;;;;;;;11.10;6.55;;;;;;;-2.24;72.99;102411.45;1657388;85;20954;-67
2022/02/13 03:01:02;;;;;;;11.68;6.47;;;;;;;-2.25;72.82;102416.34;1652468;85;21013;-67
2022/02/13 03:03:33;;;;;;;11.60;6.10;;;;;;;-2.23;72.81;102422.78;1626307;88;21553;-67
2022/02/13 03:06:00;;;;;;;10.80;6.50;;;;;;;-2.24;72.72;102416.69;1627689;86;21113;-67
2022/02/13 03:08:29;;;;;;;12.03;6.92;;;;;;;-2.23;72.67;102428.84;1625737;88;21137;-68
2022/02/13 03:10:56;;;;;;;11.25;6.72;;;;;;;-2.23;72.57;102425.39;1642362;86;20995;-68
2022/02/13 03:13:23;;;;;;;11.28;6.22;;;;;;;-2.26;72.43;102429.09;1652329;86;21025;-68
2022/02/13 03:15:51;;;;;;;14.10;6.65;;;;;;;-2.28;72.38;102432.30;1651977;86;21070;-67
2022/02/13 03:18:18;;;;;;;12.45;6.67;;;;;;;-2.29;72.36;102428.03;1626963;86;21065;-67
2022/02/13 03:20:47;;;;;;;13.03;6.37;;;;;;;-2.33;72.33;102423.19;1627682;86;21066;-67
2022/02/13 03:23:15;;;;;;;11.85;6.58;;;;;;;-2.37;72.34;102414.73;1651798;86;21572;-67
2022/02/13 03:25:41;;;;;;;10.53;6.40;;;;;;;-2.38;72.33;102410.46;1652094;86;21010;-67
2022/02/13 03:28:08;;;;;;;16.35;7.55;;;;;;;-2.37;72.31;102419.52;1642474;86;21133;-67
2022/02/13 03:30:35;;;;;;;10.93;6.35;;;;;;;-2.34;72.37;102423.64;1654720;86;21037;-67
2022/02/13 03:33:02;;;;;;;12.58;6.45;;;;;;;-2.32;72.45;102420.91;1627223;86;21594;-68
2022/02/13 03:35:30;;;;;;;10.78;6.72;;;;;;;-2.31;72.52;102414.23;1626260;88;21074;-68
2022/02/13 03:37:57;;;;;;;12.37;7.20;;;;;;;-2.30;72.47;102408.52;1626646;88;20990;-68
2022/02/13 03:40:24;;;;;;;14.03;7.03;;;;;;;-2.31;72.49;102405.06;1626280;88;21034;-68
2022/02/13 03:42:53;;;;;;;13.58;7.35;;;;;;;-2.31;72.60;102403.76;1651793;86;21006;-69
2022/02/13 03:45:19;;;;;;;10.85;6.53;;;;;;;-2.30;72.63;102408.52;1652167;86;21976;-67
2022/02/13 03:47:46;;;;;;;13.22;7.37;;;;;;;-2.31;72.69;102405.06;1626424;88;21525;-68
2022/02/13 03:50:12;;;;;;;12.10;7.03;;;;;;;-2.36;72.84;102402.02;1651879;86;21017;-68
2022/02/13 03:52:41;;;;;;;11.60;6.78;;;;;;;-2.41;72.88;102404.17;1678228;85;21023;-68
2022/02/13 03:55:11;;;;;;;12.13;6.80;;;;;;;-2.42;72.85;102407.27;1669403;86;20975;-68
2022/02/13 03:57:38;;;;;;;11.95;6.42;;;;;;;-2.42;72.74;102390.27;1682107;85;21373;-68
2022/02/13 04:00:07;;;;;;;11.25;6.42;;;;;;;-2.46;72.57;102385.42;1652855;86;21502;-68
2022/02/13 04:02:36;;;;;;;13.58;7.55;;;;;;;-2.49;72.44;102386.98;1651982;86;21667;-68
2022/02/13 04:05:03;;;;;;;11.43;6.72;;;;;;;-2.55;72.40;102384.38;1679617;85;21018;-68
2022/02/13 04:07:30;;;;;;;10.25;6.55;;;;;;;-2.62;72.47;102389.77;1679260;84;21624;-68
2022/02/13 04:09:58;;;;;;;11.15;6.58;;;;;;;-2.69;72.54;102388.12;1651472;87;21538;-68
2022/02/13 04:12:25;;;;;;;12.33;7.00;;;;;;;-2.73;72.58;102388.48;1677989;85;20935;-69
2022/02/13 04:14:52;;;;;;;12.53;6.50;;;;;;;-2.77;72.62;102387.08;1677995;85;20963;-67
2022/02/13 04:17:20;;;;;;;11.03;7.03;;;;;;;-2.78;72.94;102390.17;1667751;86;21055;-68
2022/02/13 04:19:46;;;;;;;12.90;7.20;;;;;;;-2.79;73.31;102372.83;1680435;85;20975;-69
2022/02/13 04:22:13;;;;;;;11.78;6.87;;;;;;;-2.76;73.63;102369.97;1678021;85;21037;-68
2022/02/13 04:24:40;;;;;;;12.93;7.20;;;;;;;-2.68;73.76;102364.11;1678647;85;20994;-67
2022/02/13 04:27:07;;;;;;;14.03;7.17;;;;;;;-2.68;73.76;102364.11;1646036;86;21058;-67
2022/02/13 04:29:34;;;;;;;12.65;6.72;;;;;;;-2.63;74.15;102368.50;1682198;85;21078;-67
2022/02/13 04:32:00;;;;;;;13.20;7.30;;;;;;;-2.61;74.24;102377.85;1679652;85;20970;-67
2022/02/13 04:34:29;;;;;;;10.63;6.67;;;;;;;-2.60;74.30;102370.83;1679484;85;21604;-67
2022/02/13 04:36:56;;;;;;;12.05;7.28;;;;;;;-2.60;74.26;102364.29;1669197;86;21117;-68
2022/02/13 04:39:23;;;;;;;10.00;6.92;;;;;;;-2.56;74.22;102374.05;1681872;85;20947;-68
2022/02/13 04:41:50;;;;;;;14.25;7.05;;;;;;;-2.51;74.11;102373.18;1679567;85;21026;-68
2022/02/13 04:44:17;;;;;;;10.78;6.67;;;;;;;-2.49;74.00;102379.95;1679809;85;21616;-68
2022/02/13 04:46:44;;;;;;;12.70;7.55;;;;;;;-2.45;73.87;102377.91;1679709;85;21239;-68
2022/02/13 04:49:13;;;;;;;13.48;7.20;;;;;;;-2.43;73.69;102380.76;1669300;86;21050;-68
2022/02/13 04:51:40;;;;;;;14.10;7.37;;;;;;;-2.43;73.54;102374.70;1682257;85;21496;-68
2022/02/13 04:54:09;;;;;;;13.25;7.33;;;;;;;-2.46;73.34;102381.50;1653093;86;20986;-68
2022/02/13 04:56:41;;;;;;;12.15;7.30;;;;;;;-2.53;73.24;102382.48;1629912;86;21098;-68
2022/02/13 04:59:09;;;;;;;17.57;7.33;;;;;;;-2.53;73.15;102392.94;1655429;85;21143;-68
2022/02/13 05:01:37;;;;;;;12.15;7.08;;;;;;;-2.56;73.16;102387.13;1652235;86;21390;-68
2022/02/13 05:04:05;;;;;;;12.58;8.03;;;;;;;-2.57;73.12;102388.06;1627436;86;21084;-68
2022/02/13 05:06:32;;;;;;;11.88;7.20;;;;;;;-2.58;73.00;102385.94;1653582;84;21062;-68
2022/02/13 05:09:02;;;;;;;12.88;7.80;;;;;;;-2.62;72.88;102396.30;1652098;86;21519;-68
2022/02/13 05:11:31;;;;;;;11.30;7.35;;;;;;;-2.64;72.81;102400.34;1652172;86;20962;-67
2022/02/13 05:14:01;;;;;;;13.85;6.65;;;;;;;-2.68;72.68;102397.62;1643021;86;21113;-68
2022/02/13 05:16:32;;;;;;;12.65;6.75;;;;;;;-2.71;72.56;102388.72;1654649;86;21014;-66
2022/02/13 05:19:00;;;;;;;12.15;6.85;;;;;;;-2.70;72.47;102393.47;1653000;85;21221;-67
2022/02/13 05:21:27;;;;;;;12.28;7.08;;;;;;;-2.73;72.33;102389.34;1652790;85;21544;-67
2022/02/13 05:23:53;;;;;;;11.15;7.35;;;;;;;-2.78;72.15;102397.20;1628076;86;21114;-68
2022/02/13 05:26:20;;;;;;;13.98;6.95;;;;;;;-2.86;72.05;102399.13;1626475;88;21081;-67
2022/02/13 05:28:47;;;;;;;16.70;7.47;;;;;;;-2.90;71.99;102389.36;1653186;85;20977;-68
2022/02/13 05:31:16;;;;;;;12.18;7.62;;;;;;;-2.92;71.88;102399.62;1652302;86;21013;-67
2022/02/13 05:33:43;;;;;;;14.10;7.50;;;;;;;-2.97;71.79;102400.45;1643552;86;20991;-67
2022/02/13 05:36:10;;;;;;;14.95;7.00;;;;;;;-3.02;71.76;102400.00;1654807;86;21584;-67
2022/02/13 05:38:37;;;;;;;14.90;7.45;;;;;;;-3.04;71.75;102403.20;1626350;88;20971;-67
2022/02/13 05:41:08;;;;;;;12.28;6.92;;;;;;;-3.02;71.69;102401.31;1627324;86;21051;-68
2022/02/13 05:43:35;;;;;;;12.13;7.12;;;;;;;-3.01;71.72;102405.58;1652831;85;20989;-68
2022/02/13 05:46:03;;;;;;;12.47;7.28;;;;;;;-3.02;71.66;102408.67;1652234;86;21069;-67
2022/02/13 05:48:31;;;;;;;10.68;7.12;;;;;;;-3.02;71.63;102407.84;1641814;87;21162;-67
2022/02/13 05:50:58;;;;;;;13.53;7.42;;;;;;;-3.08;71.59;102409.98;1654243;86;20987;-68
2022/02/13 05:53:25;;;;;;;9.90;6.87;;;;;;;-3.17;71.61;102420.33;1652235;86;20982;-68
2022/02/13 05:55:52;;;;;;;13.32;7.67;;;;;;;-3.22;71.68;102417.27;1652038;86;20978;-68
2022/02/13 05:58:18;;;;;;;12.40;7.28;;;;;;;-3.21;71.73;102401.93;1642047;87;20992;-68
2022/02/13 06:00:45;;;;;;;13.30;7.70;;;;;;;-3.23;71.78;102411.66;1654808;86;21807;-68
2022/02/13 06:03:12;;;;;;;12.85;7.28;;;;;;;-3.18;71.95;102406.92;1651983;86;21061;-68
2022/02/13 06:05:39;;;;;;;13.93;7.70;;;;;;;-3.08;72.00;102414.38;1663908;85;21061;-68
2022/02/13 06:08:06;;;;;;;14.75;7.90;;;;;;;-3.01;71.99;102416.03;1627360;86;21027;-68
2022/02/13 06:10:34;;;;;;;14.80;8.70;;;;;;;-2.93;72.00;102409.70;1678318;85;20959;-68
2022/02/13 06:13:01;;;;;;;13.45;7.10;;;;;;;-2.82;72.04;102413.61;1677980;85;21989;-69
2022/02/13 06:15:28;;;;;;;15.48;8.25;;;;;;;-2.71;72.06;102414.05;1651732;86;21585;-68
2022/02/13 06:17:55;;;;;;;13.72;7.67;;;;;;;-2.60;72.06;102417.47;1651544;87;21079;-68
2022/02/13 06:20:22;;;;;;;13.83;7.78;;;;;;;-2.47;72.04;102411.21;1678352;85;21034;-67
2022/02/13 06:22:48;;;;;;;11.97;6.65;;;;;;;-2.31;72.29;102410.30;1678016;85;21117;-68
2022/02/13 06:25:16;;;;;;;14.47;7.42;;;;;;;-2.31;72.29;102410.30;1668026;86;21158;-68
2022/02/13 06:27:44;;;;;;;11.18;6.95;;;;;;;-2.23;72.57;102405.77;1680527;85;21011;-68
2022/02/13 06:30:12;;;;;;;13.18;7.50;;;;;;;-2.17;72.89;102404.77;1678015;85;21137;-68
2022/02/13 06:32:40;;;;;;;14.03;8.08;;;;;;;-1.99;73.13;102404.19;1678219;85;21505;-68
2022/02/13 06:35:07;;;;;;;12.63;7.28;;;;;;;-1.86;73.38;102397.44;1651735;87;21074;-68
2022/02/13 06:37:34;;;;;;;12.43;7.47;;;;;;;-1.71;73.55;102396.11;1678292;85;21573;-68
2022/02/13 06:40:05;;;;;;;13.32;7.42;;;;;;;-1.55;73.72;102391.70;1655456;85;20982;-69
2022/02/13 06:42:32;;;;;;;12.28;7.53;;;;;;;-1.40;73.81;102389.56;1667831;86;21043;-68
2022/02/13 06:44:59;;;;;;;13.70;7.65;;;;;;;-1.26;73.75;102388.70;1680818;85;21962;-68
2022/02/13 06:47:26;;;;;;;12.73;7.58;;;;;;;-1.08;73.99;102395.94;1678379;85;21100;-69
2022/02/13 06:49:53;;;;;;;13.32;7.37;;;;;;;-0.92;74.02;102392.76;1678124;85;21095;-68
2022/02/13 06:52:19;;;;;;;11.45;7.60;;;;;;;-0.77;74.02;102396.66;1667522;86;21055;-68
2022/02/13 06:54:46;;;;;;;11.65;7.70;;;;;;;-0.61;74.04;102392.18;1680631;85;21062;-69
2022/02/13 06:57:12;;;;;;;10.45;7.17;;;;;;;-0.47;74.02;102388.64;1651707;86;21058;-68
2022/02/13 06:59:41;;;;;;;13.88;7.87;;;;;;;-0.32;73.98;102392.17;1678133;85;21105;-68
2022/02/13 07:02:12;;;;;;;10.78;7.20;;;;;;;-0.19;73.96;102387.45;1677674;85;20959;-68
2022/02/13 07:04:40;;;;;;;11.88;8.10;;;;;;;-0.04;73.88;102388.64;1651956;86;21096;-68
2022/02/13 07:07:08;;;;;;;10.93;6.60;;;;;;;0.05;73.78;102389.59;1674751;85;21038;-68
2022/02/13 07:09:36;;;;;;;10.53;6.65;;;;;;;0.11;73.55;102390.34;1652063;86;21093;-68
2022/02/13 07:12:09;;;;;;;11.90;7.35;;;;;;;0.12;73.56;102389.36;1641971;87;21494;-68
2022/02/13 07:14:38;;;;;;;12.50;7.62;;;;;;;0.09;73.49;102386.20;1654501;86;21045;-68
2022/02/13 07:17:09;;;;;;;11.30;7.50;;;;;;;0.16;73.51;102388.59;1626330;88;21538;-68
2022/02/13 07:19:37;;;;;;;12.15;8.28;;;;;;;0.25;73.56;102392.17;1626890;86;21117;-68
2022/02/13 07:22:06;;;;;;;13.15;8.10;;;;;;;0.39;73.56;102396.95;1651923;86;21069;-68
2022/02/13 07:24:37;;;;;;;12.43;9.08;;;;;;;0.55;73.53;102382.69;1652249;86;21033;-68
2022/02/13 07:27:05;;;;;;;14.83;8.88;;;;;;;0.72;73.43;102386.83;1626504;88;21506;-69
2022/02/13 07:29:33;;;;;;;13.15;8.78;;;;;;;0.86;73.30;102386.36;1626306;88;21078;-68
2022/02/13 07:32:00;;;;;;;13.32;8.43;;;;;;;0.95;73.10;102380.17;1652184;86;21122;-68
2022/02/13 07:34:28;;;;;;;12.20;7.97;;;;;;;1.04;73.02;102379.78;1651781;86;21033;-68
2022/02/13 07:37:01;;;;;;;12.98;7.47;;;;;;;1.12;72.90;102376.76;1626207;88;20994;-69
2022/02/13 07:39:23;;;;;;;12.15;7.65;;;;;;;1.23;72.82;102377.51;1626995;86;21137;-68
2022/02/13 07:41:52;;;;;;;12.50;8.50;;;;;;;1.31;72.75;102371.81;1626138;88;20994;-68
2022/02/13 07:44:19;;;;;;;12.75;7.83;;;;;;;1.42;72.65;102374.72;1652013;86;20981;-69
2022/02/13 07:46:48;;;;;;;9.65;6.55;;;;;;;1.48;72.46;102369.31;1652042;86;21065;-68
2022/02/13 07:49:18;;;;;;;12.80;6.60;;;;;;;1.54;72.27;102364.27;1641689;87;21086;-68
2022/02/13 07:51:45;;;;;;;10.32;6.22;;;;;;;1.59;72.04;102368.59;1654188;86;22232;-67
2022/02/13 07:54:13;;;;;;;9.53;6.40;;;;;;;1.62;71.80;102363.52;1626029;88;21015;-68
2022/02/13 07:56:41;;;;;;;10.15;5.95;;;;;;;1.69;71.74;102367.69;1675210;85;21053;-67
2022/02/13 07:59:09;;;;;;;7.90;5.72;;;;;;;1.76;71.65;102359.50;1679277;85;21021;-67
2022/02/13 08:01:36;;;;;;;9.53;5.10;;;;;;;1.88;71.55;102359.59;1660631;86;20991;-67
2022/02/13 08:04:03;;;;;;;8.93;5.75;;;;;;;2.01;71.42;102364.45;1678684;85;21250;-68
2022/02/13 08:06:30;;;;;;;8.55;4.83;;;;;;;2.11;71.20;102354.12;1650812;86;21557;-67
2022/02/13 08:08:58;;;;;;;9.05;4.70;;;;;;;2.18;70.64;102354.81;1626036;88;21181;-67
2022/02/13 08:11:25;;;;;;;7.10;4.53;;;;;;;2.26;70.49;102353.52;1652026;86;21068;-68
2022/02/13 08:13:56;;;;;;;8.60;4.55;;;;;;;2.39;70.30;102351.77;1651772;86;21089;-69
2022/02/13 08:16:23;;;;;;;7.92;4.40;;;;;;;2.49;70.05;102349.33;1643246;86;21817;-68
2022/02/13 08:18:49;;;;;;;7.65;4.08;;;;;;;2.61;69.85;102342.45;1654047;86;21450;-67
2022/02/13 08:21:17;;;;;;;5.87;3.45;;;;;;;2.71;69.60;102343.97;1627086;86;21081;-68
2022/02/13 08:23:48;;;;;;;;;;;;;;;2.75;68.15;102334.73;1656033;85;21021;-67
2022/02/13 08:26:18;;;;;;;7.70;3.98;;;;;;;2.76;67.33;102335.55;1652227;86;20235;-68
2022/02/13 08:28:45;;;;;;;6.17;3.37;;;;;;;2.78;66.99;102340.19;1652545;85;21234;-68
2022/02/13 08:31:19;;;;;;;7.75;3.67;;;;;;;2.90;67.00;102335.44;1626352;88;21030;-68
2022/02/13 08:33:42;;;;;;;5.35;3.05;;;;;;;3.01;66.99;102335.94;1626257;86;21082;-68
2022/02/13 08:36:09;;;;;;;6.20;3.22;;;;;;;3.11;66.34;102327.86;1626148;88;21105;-68
2022/02/13 08:38:37;;;;;;;5.55;2.65;;;;;;;3.23;66.15;102331.84;1632200;86;21073;-68
2022/02/13 08:41:07;;;;;;;5.67;2.58;;;;;;;3.33;64.43;102333.50;1626963;86;21154;-69
2022/02/13 08:43:37;;;;;;;5.62;2.58;;;;;;;3.33;63.24;102325.58;1652144;86;21462;-69
2022/02/13 08:46:04;;;;;;;4.53;2.47;;;;;;;3.33;62.61;102328.22;1651957;86;21192;-69
2022/02/13 08:48:31;;;;;;;5.12;2.37;;;;;;;3.32;61.79;102327.86;1644970;86;21071;-68
2022/02/13 08:50:58;;;;;;;5.12;2.55;;;;;;;3.36;61.76;102319.47;1654356;86;20962;-68
2022/02/13 08:53:25;;;;;;;5.12;2.55;;;;;;;3.43;61.48;102325.73;1626232;88;21162;-68
2022/02/13 08:55:51;;;;;;;6.65;2.75;;;;;;;3.47;60.52;102324.39;1626240;88;21086;-68
2022/02/13 08:58:18;;;;;;;5.90;3.02;;;;;;;3.50;60.38;102322.75;1654223;85;21715;-68
2022/02/13 09:00:45;;;;;;;4.65;2.77;;;;;;;3.55;59.65;102316.12;1679193;84;21019;-67
2022/02/13 09:03:12;;;;;;;5.65;2.80;;;;;;;3.56;59.45;102325.22;1667684;86;21071;-68
2022/02/13 09:05:39;;;;;;;5.75;2.80;;;;;;;3.57;59.44;102321.58;1680462;85;21158;-68
2022/02/13 09:08:08;;;;;;;5.47;2.87;;;;;;;3.66;59.74;102319.77;1651302;87;21023;-66
2022/02/13 09:10:37;;;;;;;4.47;2.30;;;;;;;3.78;59.76;102312.30;1651496;87;21077;-69
2022/02/13 09:13:08;;;;;;;4.72;2.47;;;;;;;3.93;59.16;102314.08;1651209;87;21012;-68
2022/02/13 09:15:35;;;;;;;4.97;2.47;;;;;;;4.03;58.44;102319.67;1627397;87;20991;-69
2022/02/13 09:18:05;;;;;;;3.77;1.85;;;;;;;4.11;57.05;102311.19;1651256;87;21515;-69
2022/02/13 09:20:32;;;;;;;5.05;2.22;;;;;;;4.17;56.71;102311.02;1678156;85;21045;-69
2022/02/13 09:22:59;;;;;;;3.90;2.27;;;;;;;4.22;54.94;102312.66;1677609;85;21105;-69
2022/02/13 09:25:26;;;;;;;5.58;2.50;;;;;;;4.17;53.62;102310.52;1651599;86;21085;-68
2022/02/13 09:27:53;;;;;;;4.65;2.50;;;;;;;4.16;53.80;102300.13;1677809;85;21022;-69
2022/02/13 09:30:19;;;;;;;4.37;2.37;;;;;;;4.20;53.76;102296.12;1678412;85;21546;-69
2022/02/13 09:32:46;;;;;;;4.53;2.20;;;;;;;4.20;52.87;102298.77;1667636;86;21063;-69
2022/02/13 09:35:15;;;;;;;4.72;2.70;;;;;;;4.22;52.70;102297.61;1680673;85;21074;-69
2022/02/13 09:37:42;;;;;;;5.17;2.52;;;;;;;4.25;52.74;102299.09;1677833;85;21497;-69
2022/02/13 09:40:10;;;;;;;5.08;2.50;;;;;;;4.36;53.54;102298.70;1678243;85;20950;-68
2022/02/13 09:42:40;;;;;;;5.00;2.60;;;;;;;4.45;52.80;102281.80;1651387;87;21177;-69
2022/02/13 09:45:07;;;;;;;5.35;2.50;;;;;;;4.52;52.37;102289.05;1651365;86;21063;-69
2022/02/13 09:47:40;;;;;;;5.45;2.70;;;;;;;4.57;52.47;102281.39;1677913;85;21541;-68
2022/02/13 09:50:09;;;;;;;5.85;2.60;;;;;;;4.65;52.37;102280.03;1678078;85;21490;-67
2022/02/13 09:52:37;;;;;;;4.97;2.52;;;;;;;4.74;52.66;102271.52;1667608;86;21073;-69
2022/02/13 09:55:05;;;;;;;4.83;2.65;;;;;;;4.83;51.91;102271.28;1680614;85;21879;-68
2022/02/13 10:00:18;;;;;;;4.40;2.30;;;;;;;4.82;50.70;102268.83;1651627;86;20948;-68
2022/02/13 10:02:45;;;;;;;3.42;2.10;;;;;;;4.83;51.00;102269.14;1677860;85;21098;-68
2022/02/13 10:05:13;;;;;;;5.78;2.67;;;;;;;4.87;51.10;102258.52;1677912;85;21517;-67
2022/02/13 10:07:40;;;;;;;5.83;2.80;;;;;;;4.94;50.97;102246.23;1651345;87;21138;-68
2022/02/13 10:10:12;;;;;;;8.65;4.50;;;;;;;4.94;50.75;102251.02;1678056;85;21007;-68
2022/02/13 10:12:43;;;;;;;8.68;5.42;;;;;;;4.98;50.38;102244.05;1677839;85;21062;-68
2022/02/13 10:15:24;;;;;;;6.47;4.30;;;;;;;4.98;50.89;102242.73;1667870;86;21071;-68
2022/02/13 10:18:08;;;;;;;5.85;3.30;;;;;;;5.02;50.89;102226.80;1679358;85;21008;-67
2022/02/13 10:20:42;;;;;;;5.72;3.35;;;;;;;5.01;50.39;102244.52;1651270;86;21551;-67
2022/02/13 10:23:13;;;;;;;6.25;3.52;;;;;;;5.06;50.26;102232.05;1657666;85;20974;-68
2022/02/13 10:25:43;;;;;;;5.67;3.25;;;;;;;5.03;50.28;102232.41;1653598;85;21634;-68
2022/02/13 10:28:16;;;;;;;5.25;3.00;;;;;;;5.06;50.60;102221.45;1642244;87;21083;-68
2022/02/13 10:30:47;;;;;;;6.17;3.37;;;;;;;5.09;50.85;102212.65;1654352;86;21046;-67
2022/02/13 10:33:23;;;;;;;6.37;3.42;;;;;;;5.12;50.45;102225.53;1652075;86;21180;-68
2022/02/13 10:36:11;;;;;;;5.53;3.35;;;;;;;5.11;50.42;102220.44;1651759;86;21029;-67
2022/02/13 10:38:42;;;;;;;5.75;3.08;;;;;;;5.17;50.40;102219.21;1642030;87;21003;-69
2022/02/13 10:41:22;;;;;;;5.35;2.80;;;;;;;5.26;50.37;102215.14;1654454;85;21144;-68
2022/02/13 10:44:03;;;;;;;6.15;2.92;;;;;;;5.34;50.24;102205.80;1651845;86;20974;-68
2022/02/13 10:46:40;;;;;;;4.70;2.87;;;;;;;5.43;50.16;102203.39;1651825;86;21171;-68
2022/02/13 10:49:10;;;;;;;5.03;2.77;;;;;;;5.44;49.58;102210.33;1626394;88;21506;-68
2022/02/13 10:51:37;;;;;;;4.58;2.58;;;;;;;5.37;49.58;102193.02;1651975;86;21544;-68
2022/02/13 10:54:07;;;;;;;5.30;2.75;;;;;;;5.42;49.68;102187.16;1651951;86;21022;-68
2022/02/13 10:56:37;;;;;;;4.45;2.55;;;;;;;5.45;48.96;102181.48;1641937;87;21160;-68
2022/02/13 10:59:07;;;;;;;4.33;2.98;;;;;;;5.40;49.07;102183.88;1670632;84;21132;-69
2022/02/13 11:01:35;;;;;;;4.70;2.67;;;;;;;5.38;49.22;102180.08;1651414;86;21034;-69
2022/02/13 11:04:04;;;;;;;7.03;3.62;;;;;;;5.38;49.36;102165.50;1652220;86;21082;-69
2022/02/13 11:06:33;;;;;;;5.35;2.60;;;;;;;5.39;49.42;102173.76;1652798;86;21090;-69
2022/02/13 11:09:26;;;;;;;4.35;2.70;;;;;;;5.41;49.68;102170.95;1643906;86;21113;-69
2022/02/13 11:11:56;;;;;;;6.28;3.67;;;;;;;5.44;49.00;102157.33;1651729;86;21192;-68
2022/02/13 11:14:36;;;;;;;5.15;3.20;;;;;;;5.35;48.45;102159.75;1651871;86;21009;-68
2022/02/13 11:17:05;;;;;;;4.42;2.35;;;;;;;5.28;48.89;102149.05;1641891;87;21073;-68
2022/02/13 11:19:38;;;;;;;6.28;3.58;;;;;;;5.28;48.97;102154.36;1654348;86;21085;-68
2022/02/13 11:22:06;;;;;;;5.72;3.20;;;;;;;5.25;48.96;102153.91;1651818;86;21002;-67
2022/02/13 11:24:36;;;;;;;6.12;3.12;;;;;;;5.26;48.94;102143.11;1652001;86;22002;-66
2022/02/13 11:27:06;;;;;;;5.60;3.20;;;;;;;5.25;48.99;102142.80;1626222;88;20983;-68
2022/02/13 11:29:55;;;;;;;6.17;3.65;;;;;;;5.22;48.83;102125.94;1652004;86;21078;-67